FDX9122 MMGL-KMEM
Flight info
| Callsign | FDX9122 |
|---|---|
| Flight time | N/A |
| Altitude | 35000 |
| Route | OTOKI1B OTOKI J42 ZCL UT5 SLW UJ40 NLD J22 LRD DCT ICEMN DCT KH03E DCT ELD HOBRK4 |
| Aircraft | MD11/H-SDE1E2E3FGHIJ2J3J4J5M1RWXY/LB1D1 |
Departure
| Time | 2026-04-27 18:54 |
|---|---|
| Airport | Guadalajara International Airport (MMGL) |
Arrival
| Time | N/A |
|---|---|
| Airport | Memphis International Airport (KMEM) |
| Time | Latitude | Longitude | Altitude | Speed | Heading |
|---|---|---|---|---|---|
| 2026-04-27 18:32 | 20.52280 | -103.29643 | 5027 ft | 0 kts | 18° |
| 2026-04-27 18:42 | 20.52261 | -103.29650 | 5024 ft | 4 kts | 13° |
| 2026-04-27 18:42 | 20.52243 | -103.29654 | 5024 ft | 4 kts | 15° |
| 2026-04-27 18:42 | 20.52216 | -103.29667 | 5025 ft | 2 kts | 52° |
| 2026-04-27 18:42 | 20.52204 | -103.29687 | 5025 ft | 4 kts | 86° |
| 2026-04-27 18:43 | 20.52209 | -103.29710 | 5021 ft | 4 kts | 115° |
| 2026-04-27 18:43 | 20.52215 | -103.29724 | 5024 ft | 1 kts | 109° |
| 2026-04-27 18:43 | 20.52215 | -103.29726 | 5024 ft | 0 kts | 109° |
| 2026-04-27 18:47 | 20.52205 | -103.29695 | 5025 ft | 6 kts | 109° |
| 2026-04-27 18:47 | 20.52189 | -103.29646 | 5025 ft | 6 kts | 109° |
| 2026-04-27 18:47 | 20.52176 | -103.29605 | 5027 ft | 7 kts | 109° |
| 2026-04-27 18:47 | 20.52159 | -103.29552 | 5027 ft | 8 kts | 109° |
| 2026-04-27 18:48 | 20.52142 | -103.29502 | 5027 ft | 7 kts | 109° |
| 2026-04-27 18:48 | 20.52113 | -103.29466 | 5027 ft | 6 kts | 152° |
| 2026-04-27 18:48 | 20.52069 | -103.29466 | 5027 ft | 6 kts | 200° |
| 2026-04-27 18:48 | 20.52029 | -103.29485 | 5027 ft | 8 kts | 204° |
| 2026-04-27 18:49 | 20.51961 | -103.29518 | 5027 ft | 13 kts | 204° |
| 2026-04-27 18:49 | 20.51881 | -103.29556 | 5027 ft | 11 kts | 204° |
| 2026-04-27 18:49 | 20.51828 | -103.29544 | 5027 ft | 7 kts | 139° |
| 2026-04-27 18:49 | 20.51787 | -103.29490 | 5027 ft | 11 kts | 126° |
| 2026-04-27 18:50 | 20.51744 | -103.29426 | 5027 ft | 11 kts | 126° |
| 2026-04-27 18:50 | 20.51693 | -103.29353 | 5027 ft | 13 kts | 126° |
| 2026-04-27 18:50 | 20.51643 | -103.29279 | 5027 ft | 12 kts | 126° |
| 2026-04-27 18:50 | 20.51594 | -103.29217 | 5026 ft | 9 kts | 142° |
| 2026-04-27 18:51 | 20.51549 | -103.29211 | 5027 ft | 6 kts | 197° |
| 2026-04-27 18:51 | 20.51511 | -103.29229 | 5027 ft | 5 kts | 204° |
| 2026-04-27 18:51 | 20.51488 | -103.29240 | 5027 ft | 2 kts | 204° |
| 2026-04-27 18:51 | 20.51460 | -103.29253 | 5027 ft | 8 kts | 204° |
| 2026-04-27 18:52 | 20.51422 | -103.29287 | 5026 ft | 5 kts | 244° |
| 2026-04-27 18:52 | 20.51424 | -103.29298 | 5027 ft | 2 kts | 283° |
| 2026-04-27 18:52 | 20.51431 | -103.29322 | 5028 ft | 4 kts | 286° |
| 2026-04-27 18:53 | 20.51446 | -103.29360 | 5028 ft | 8 kts | 294° |
| 2026-04-27 18:53 | 20.51503 | -103.29495 | 5029 ft | 45 kts | 294° |
| 2026-04-27 18:53 | 20.51736 | -103.30051 | 5029 ft | 117 kts | 294° |
| 2026-04-27 18:53 | 20.52151 | -103.31049 | 5031 ft | 173 kts | 292° |
| 2026-04-27 18:54 | 20.52658 | -103.32290 | 5446 ft | 189 kts | 294° |
| 2026-04-27 18:54 | 20.53249 | -103.33606 | 6082 ft | 202 kts | 295° |
| 2026-04-27 18:54 | 20.53842 | -103.34990 | 6632 ft | 206 kts | 292° |
| 2026-04-27 18:54 | 20.54395 | -103.36367 | 7295 ft | 198 kts | 291° |
| 2026-04-27 18:55 | 20.54968 | -103.37722 | 7942 ft | 205 kts | 293° |
| 2026-04-27 18:55 | 20.55576 | -103.39169 | 8265 ft | 227 kts | 292° |
| 2026-04-27 18:55 | 20.56244 | -103.40815 | 8391 ft | 257 kts | 292° |
| 2026-04-27 18:55 | 20.56969 | -103.42596 | 8934 ft | 259 kts | 293° |
| 2026-04-27 18:56 | 20.57700 | -103.44323 | 9727 ft | 255 kts | 292° |
| 2026-04-27 18:56 | 20.58435 | -103.46088 | 10160 ft | 265 kts | 294° |
| 2026-04-27 18:56 | 20.59473 | -103.47758 | 10371 ft | 281 kts | 314° |
| 2026-04-27 18:56 | 20.61185 | -103.48916 | 10488 ft | 311 kts | 341° |
| 2026-04-27 18:57 | 20.63423 | -103.49138 | 10671 ft | 339 kts | 9° |
| 2026-04-27 18:57 | 20.65690 | -103.48269 | 11007 ft | 358 kts | 32° |
| 2026-04-27 18:57 | 20.67555 | -103.46443 | 11356 ft | 372 kts | 54° |
| 2026-04-27 18:57 | 20.68830 | -103.44021 | 12129 ft | 375 kts | 72° |
| 2026-04-27 18:58 | 20.69555 | -103.41353 | 12993 ft | 377 kts | 79° |
| 2026-04-27 18:58 | 20.69957 | -103.39502 | 13466 ft | 378 kts | 80° |
| 2026-04-27 18:58 | 20.70878 | -103.35897 | 14554 ft | 382 kts | 73° |
| 2026-04-27 18:58 | 20.72058 | -103.33325 | 15081 ft | 394 kts | 55° |
| 2026-04-27 18:59 | 20.74016 | -103.31248 | 15668 ft | 403 kts | 35° |
| 2026-04-27 18:59 | 20.76525 | -103.29875 | 16165 ft | 409 kts | 20° |
| 2026-04-27 18:59 | 20.79236 | -103.28909 | 16761 ft | 412 kts | 17° |
| 2026-04-27 18:59 | 20.81992 | -103.28044 | 17427 ft | 414 kts | 15° |
| 2026-04-27 19:00 | 20.84771 | -103.27181 | 18052 ft | 417 kts | 15° |
| 2026-04-27 19:00 | 20.87552 | -103.26284 | 18615 ft | 419 kts | 16° |
| 2026-04-27 19:00 | 20.90348 | -103.25347 | 19126 ft | 423 kts | 17° |
| 2026-04-27 19:00 | 20.93161 | -103.24378 | 19609 ft | 426 kts | 17° |
| 2026-04-27 19:01 | 20.95991 | -103.23387 | 20091 ft | 429 kts | 17° |
| 2026-04-27 19:01 | 20.98836 | -103.22381 | 20568 ft | 432 kts | 17° |
| 2026-04-27 19:01 | 21.01702 | -103.21365 | 21026 ft | 435 kts | 17° |
| 2026-04-27 19:01 | 21.04592 | -103.20338 | 21487 ft | 439 kts | 17° |
| 2026-04-27 19:02 | 21.07504 | -103.19303 | 21971 ft | 442 kts | 16° |
| 2026-04-27 19:02 | 21.10436 | -103.18261 | 22450 ft | 446 kts | 16° |
| 2026-04-27 19:02 | 21.13352 | -103.17225 | 22954 ft | 449 kts | 16° |
| 2026-04-27 19:02 | 21.16328 | -103.16168 | 23455 ft | 452 kts | 16° |
| 2026-04-27 19:03 | 21.19328 | -103.15101 | 23877 ft | 456 kts | 16° |
| 2026-04-27 19:03 | 21.22347 | -103.14028 | 24306 ft | 459 kts | 16° |
| 2026-04-27 19:03 | 21.25391 | -103.12945 | 24761 ft | 462 kts | 16° |
| 2026-04-27 19:03 | 21.27457 | -103.12210 | 25064 ft | 464 kts | 16° |
| 2026-04-27 19:04 | 21.31556 | -103.10820 | 25641 ft | 468 kts | 13° |
| 2026-04-27 19:04 | 21.34713 | -103.09911 | 26088 ft | 471 kts | 12° |
| 2026-04-27 19:04 | 21.37907 | -103.09068 | 26533 ft | 474 kts | 11° |
| 2026-04-27 19:04 | 21.41125 | -103.08245 | 26960 ft | 477 kts | 11° |
| 2026-04-27 19:05 | 21.44365 | -103.07420 | 27386 ft | 480 kts | 11° |
| 2026-04-27 19:05 | 21.47627 | -103.06583 | 27812 ft | 484 kts | 11° |
| 2026-04-27 19:05 | 21.50912 | -103.05732 | 28233 ft | 487 kts | 11° |
| 2026-04-27 19:05 | 21.54215 | -103.04870 | 28651 ft | 490 kts | 11° |
| 2026-04-27 19:06 | 21.57545 | -103.03997 | 29059 ft | 493 kts | 11° |
| 2026-04-27 19:06 | 21.60851 | -103.03128 | 29433 ft | 497 kts | 11° |
| 2026-04-27 19:06 | 21.64217 | -103.02243 | 29814 ft | 500 kts | 11° |
| 2026-04-27 19:06 | 21.67604 | -103.01351 | 30206 ft | 501 kts | 11° |
| 2026-04-27 19:07 | 21.70989 | -103.00459 | 30658 ft | 499 kts | 11° |
| 2026-04-27 19:07 | 21.74358 | -102.99571 | 31132 ft | 497 kts | 11° |
| 2026-04-27 19:07 | 21.77723 | -102.98683 | 31612 ft | 495 kts | 11° |
| 2026-04-27 19:07 | 21.81058 | -102.97805 | 32076 ft | 492 kts | 11° |
| 2026-04-27 19:08 | 21.84389 | -102.96926 | 32533 ft | 490 kts | 10° |
| 2026-04-27 19:08 | 21.87656 | -102.96065 | 32968 ft | 488 kts | 10° |
| 2026-04-27 19:08 | 21.90948 | -102.95196 | 33397 ft | 486 kts | 10° |
| 2026-04-27 19:08 | 21.94231 | -102.94330 | 33791 ft | 485 kts | 10° |
| 2026-04-27 19:09 | 21.97504 | -102.93471 | 34153 ft | 483 kts | 9° |
| 2026-04-27 19:09 | 22.00770 | -102.92617 | 34496 ft | 481 kts | 9° |
| 2026-04-27 19:09 | 22.04019 | -102.91769 | 34790 ft | 480 kts | 9° |
| 2026-04-27 19:10 | 22.10552 | -102.90062 | 34896 ft | 483 kts | 9° |
| 2026-04-27 19:10 | 22.17093 | -102.88341 | 34914 ft | 483 kts | 9° |
| 2026-04-27 19:11 | 22.23597 | -102.86626 | 34914 ft | 483 kts | 9° |
| 2026-04-27 19:11 | 22.30134 | -102.84900 | 34908 ft | 483 kts | 9° |
| 2026-04-27 19:12 | 22.36672 | -102.83166 | 34917 ft | 484 kts | 9° |
| 2026-04-27 19:12 | 22.43216 | -102.81425 | 34912 ft | 484 kts | 9° |
| 2026-04-27 19:13 | 22.49730 | -102.79692 | 34915 ft | 484 kts | 9° |
| 2026-04-27 19:13 | 22.56281 | -102.77948 | 34941 ft | 484 kts | 9° |
| 2026-04-27 19:14 | 22.62828 | -102.76203 | 35025 ft | 485 kts | 9° |
| 2026-04-27 19:14 | 22.69346 | -102.74465 | 35109 ft | 485 kts | 9° |
| 2026-04-27 19:15 | 22.75893 | -102.72716 | 35202 ft | 484 kts | 9° |
| 2026-04-27 19:15 | 22.82449 | -102.70964 | 35278 ft | 484 kts | 9° |
| 2026-04-27 19:16 | 22.88978 | -102.69127 | 35272 ft | 488 kts | 15° |
| 2026-04-27 19:16 | 22.95117 | -102.65853 | 35275 ft | 496 kts | 27° |
| 2026-04-27 19:17 | 23.00971 | -102.61852 | 35223 ft | 498 kts | 28° |
| 2026-04-27 19:17 | 23.06802 | -102.57886 | 35123 ft | 497 kts | 27° |
| 2026-04-27 19:18 | 23.12727 | -102.53977 | 35022 ft | 497 kts | 27° |
| 2026-04-27 19:18 | 23.18663 | -102.50101 | 34925 ft | 498 kts | 27° |
| 2026-04-27 19:19 | 23.24605 | -102.46218 | 34889 ft | 498 kts | 27° |
| 2026-04-27 19:19 | 23.30551 | -102.42325 | 34887 ft | 499 kts | 27° |
| 2026-04-27 19:20 | 23.36477 | -102.38438 | 34884 ft | 499 kts | 27° |
| 2026-04-27 19:20 | 23.41432 | -102.35184 | 34883 ft | 500 kts | 27° |
| 2026-04-27 19:21 | 23.47402 | -102.31261 | 34886 ft | 501 kts | 27° |
| 2026-04-27 19:21 | 23.53374 | -102.27332 | 34887 ft | 501 kts | 27° |
| 2026-04-27 19:22 | 23.59344 | -102.23400 | 34887 ft | 501 kts | 27° |
| 2026-04-27 19:22 | 23.65280 | -102.19487 | 34893 ft | 501 kts | 26° |
| 2026-04-27 19:23 | 23.71252 | -102.15555 | 34887 ft | 500 kts | 26° |
| 2026-04-27 19:23 | 23.77223 | -102.11629 | 34890 ft | 500 kts | 26° |
| 2026-04-27 19:24 | 23.83187 | -102.07704 | 34884 ft | 500 kts | 26° |
| 2026-04-27 19:24 | 23.89115 | -102.03799 | 34887 ft | 500 kts | 26° |
| 2026-04-27 19:25 | 23.95084 | -101.99862 | 34891 ft | 501 kts | 26° |
| 2026-04-27 19:25 | 24.01048 | -101.95921 | 34888 ft | 501 kts | 26° |
| 2026-04-27 19:26 | 24.07015 | -101.91976 | 34883 ft | 501 kts | 26° |
| 2026-04-27 19:26 | 24.12985 | -101.88029 | 34886 ft | 501 kts | 26° |
| 2026-04-27 19:27 | 24.18954 | -101.84079 | 34887 ft | 501 kts | 26° |
| 2026-04-27 19:27 | 24.24919 | -101.80127 | 34888 ft | 501 kts | 26° |
| 2026-04-27 19:28 | 24.30853 | -101.76191 | 34888 ft | 500 kts | 26° |
| 2026-04-27 19:28 | 24.36819 | -101.72230 | 34886 ft | 500 kts | 26° |
| 2026-04-27 19:29 | 24.42776 | -101.68270 | 34884 ft | 500 kts | 26° |
| 2026-04-27 19:29 | 24.48725 | -101.64311 | 34881 ft | 500 kts | 26° |
| 2026-04-27 19:30 | 24.54672 | -101.60349 | 34878 ft | 500 kts | 26° |
| 2026-04-27 19:30 | 24.60624 | -101.56380 | 34880 ft | 500 kts | 26° |
| 2026-04-27 19:31 | 24.66536 | -101.52432 | 34880 ft | 499 kts | 26° |
| 2026-04-27 19:31 | 24.72470 | -101.48457 | 34878 ft | 499 kts | 26° |
| 2026-04-27 19:32 | 24.78404 | -101.44476 | 34879 ft | 499 kts | 26° |
| 2026-04-27 19:32 | 24.84337 | -101.40497 | 34881 ft | 499 kts | 26° |
| 2026-04-27 19:33 | 24.90262 | -101.36519 | 34883 ft | 499 kts | 26° |
| 2026-04-27 19:33 | 24.96200 | -101.32529 | 34881 ft | 499 kts | 26° |
| 2026-04-27 19:34 | 25.02091 | -101.28568 | 34883 ft | 499 kts | 26° |
| 2026-04-27 19:34 | 25.08021 | -101.24575 | 34891 ft | 499 kts | 26° |
| 2026-04-27 19:35 | 25.13910 | -101.20606 | 34897 ft | 499 kts | 26° |
| 2026-04-27 19:35 | 25.19841 | -101.16603 | 34895 ft | 499 kts | 26° |
| 2026-04-27 19:36 | 25.25763 | -101.12602 | 34906 ft | 499 kts | 26° |
| 2026-04-27 19:36 | 25.31689 | -101.08594 | 34961 ft | 499 kts | 26° |
| 2026-04-27 19:37 | 25.37610 | -101.04584 | 35017 ft | 499 kts | 26° |
| 2026-04-27 19:37 | 25.43532 | -101.00569 | 35075 ft | 499 kts | 26° |
| 2026-04-27 19:38 | 25.49453 | -100.96550 | 35108 ft | 499 kts | 26° |
| 2026-04-27 19:38 | 25.55333 | -100.92532 | 35110 ft | 500 kts | 27° |
| 2026-04-27 19:39 | 25.61209 | -100.88387 | 35111 ft | 501 kts | 27° |
| 2026-04-27 19:39 | 25.67089 | -100.84204 | 35063 ft | 501 kts | 27° |
| 2026-04-27 19:40 | 25.72969 | -100.80027 | 34993 ft | 502 kts | 27° |
| 2026-04-27 19:40 | 25.78856 | -100.75848 | 34920 ft | 502 kts | 27° |
| 2026-04-27 19:41 | 25.84723 | -100.71681 | 34839 ft | 504 kts | 27° |
| 2026-04-27 19:41 | 25.90631 | -100.67471 | 34818 ft | 505 kts | 27° |
| 2026-04-27 19:42 | 25.96548 | -100.63253 | 34809 ft | 506 kts | 27° |
| 2026-04-27 19:42 | 26.02444 | -100.59045 | 34806 ft | 506 kts | 27° |
| 2026-04-27 19:43 | 26.08372 | -100.54811 | 34816 ft | 506 kts | 27° |
| 2026-04-27 19:43 | 26.14312 | -100.50565 | 34824 ft | 509 kts | 27° |
| 2026-04-27 19:44 | 26.20267 | -100.46303 | 34810 ft | 507 kts | 27° |
| 2026-04-27 19:44 | 26.26181 | -100.42071 | 34806 ft | 508 kts | 27° |
| 2026-04-27 19:45 | 26.32121 | -100.37813 | 34804 ft | 507 kts | 27° |
| 2026-04-27 19:45 | 26.38056 | -100.33544 | 34803 ft | 507 kts | 27° |
| 2026-04-27 19:46 | 26.43954 | -100.29301 | 34808 ft | 507 kts | 27° |
| 2026-04-27 19:46 | 26.49894 | -100.25024 | 34808 ft | 507 kts | 27° |
| 2026-04-27 19:47 | 26.55829 | -100.20741 | 34807 ft | 508 kts | 27° |
| 2026-04-27 19:47 | 26.61765 | -100.16442 | 34800 ft | 508 kts | 27° |
| 2026-04-27 19:48 | 26.67671 | -100.12166 | 34801 ft | 508 kts | 27° |
| 2026-04-27 19:48 | 26.73622 | -100.07854 | 34807 ft | 509 kts | 27° |
| 2026-04-27 19:49 | 26.79566 | -100.03541 | 34802 ft | 508 kts | 27° |
| 2026-04-27 19:49 | 26.85503 | -99.99230 | 34803 ft | 508 kts | 26° |
| 2026-04-27 19:50 | 26.91397 | -99.94946 | 34802 ft | 508 kts | 26° |
| 2026-04-27 19:50 | 26.97326 | -99.90632 | 34812 ft | 507 kts | 26° |
| 2026-04-27 19:51 | 27.03255 | -99.86312 | 34809 ft | 507 kts | 26° |
| 2026-04-27 19:51 | 27.09179 | -99.81988 | 34814 ft | 507 kts | 26° |
| 2026-04-27 19:52 | 27.15055 | -99.77672 | 34810 ft | 507 kts | 27° |
| 2026-04-27 19:52 | 27.20959 | -99.73326 | 34841 ft | 507 kts | 27° |
| 2026-04-27 19:53 | 27.29821 | -99.66801 | 34861 ft | 507 kts | 26° |
| 2026-04-27 19:53 | 27.35734 | -99.62441 | 34881 ft | 507 kts | 27° |
| 2026-04-27 19:54 | 27.41422 | -99.57779 | 34881 ft | 515 kts | 37° |
| 2026-04-27 19:54 | 27.43866 | -99.54776 | 34883 ft | 523 kts | 48° |
| 2026-04-27 19:54 | 27.45836 | -99.51297 | 34881 ft | 530 kts | 59° |
| 2026-04-27 19:55 | 27.47263 | -99.47442 | 34886 ft | 535 kts | 70° |
| 2026-04-27 19:55 | 27.48236 | -99.43383 | 34873 ft | 537 kts | 75° |
| 2026-04-27 19:55 | 27.50402 | -99.35427 | 34884 ft | 531 kts | 60° |
| 2026-04-27 19:56 | 27.52272 | -99.31872 | 34874 ft | 524 kts | 49° |
| 2026-04-27 19:56 | 27.54637 | -99.28797 | 34867 ft | 515 kts | 37° |
| 2026-04-27 19:56 | 27.57403 | -99.26299 | 34868 ft | 505 kts | 26° |
| 2026-04-27 19:56 | 27.60400 | -99.24242 | 34869 ft | 502 kts | 23° |
| 2026-04-27 19:57 | 27.66425 | -99.20225 | 34869 ft | 505 kts | 26° |
| 2026-04-27 19:57 | 27.72262 | -99.15761 | 34867 ft | 508 kts | 29° |
| 2026-04-27 19:58 | 27.77953 | -99.11068 | 34868 ft | 509 kts | 30° |
| 2026-04-27 19:58 | 27.83648 | -99.06313 | 34872 ft | 509 kts | 30° |
| 2026-04-27 19:59 | 27.89360 | -99.01561 | 34874 ft | 509 kts | 30° |
| 2026-04-27 19:59 | 27.94935 | -98.96535 | 34878 ft | 513 kts | 34° |
| 2026-04-27 20:00 | 28.00319 | -98.91190 | 34879 ft | 515 kts | 35° |
| 2026-04-27 20:00 | 28.05684 | -98.85809 | 34887 ft | 515 kts | 35° |
| 2026-04-27 20:01 | 28.11028 | -98.80491 | 34884 ft | 515 kts | 35° |
| 2026-04-27 20:01 | 28.16420 | -98.75145 | 34885 ft | 515 kts | 35° |
| 2026-04-27 20:02 | 28.21819 | -98.69787 | 34890 ft | 515 kts | 35° |
| 2026-04-27 20:02 | 28.27208 | -98.64428 | 34886 ft | 515 kts | 35° |
| 2026-04-27 20:03 | 28.32604 | -98.59054 | 34874 ft | 515 kts | 35° |
| 2026-04-27 20:03 | 28.37963 | -98.53710 | 34872 ft | 516 kts | 35° |
| 2026-04-27 20:04 | 28.43386 | -98.48295 | 34870 ft | 516 kts | 35° |
| 2026-04-27 20:04 | 28.47831 | -98.43849 | 34859 ft | 516 kts | 35° |
| 2026-04-27 20:05 | 28.54138 | -98.37533 | 34851 ft | 516 kts | 35° |
| 2026-04-27 20:05 | 28.59523 | -98.32109 | 34850 ft | 516 kts | 35° |
| 2026-04-27 20:06 | 28.64871 | -98.26723 | 34843 ft | 516 kts | 35° |
| 2026-04-27 20:06 | 28.70062 | -98.20998 | 34840 ft | 521 kts | 40° |
| 2026-04-27 20:07 | 28.74211 | -98.16014 | 34840 ft | 522 kts | 41° |
| 2026-04-27 20:07 | 28.80011 | -98.08982 | 34844 ft | 522 kts | 40° |
| 2026-04-27 20:08 | 28.84196 | -98.03949 | 34841 ft | 522 kts | 40° |
| 2026-04-27 20:08 | 28.89172 | -97.97985 | 34846 ft | 522 kts | 40° |
| 2026-04-27 20:09 | 28.94175 | -97.91985 | 34849 ft | 522 kts | 40° |
| 2026-04-27 20:09 | 28.99177 | -97.85974 | 34849 ft | 522 kts | 40° |
| 2026-04-27 20:10 | 29.04177 | -97.79954 | 34852 ft | 522 kts | 40° |
| 2026-04-27 20:10 | 29.09172 | -97.73931 | 34855 ft | 522 kts | 40° |
| 2026-04-27 20:11 | 29.14168 | -97.67898 | 34859 ft | 522 kts | 40° |
| 2026-04-27 20:11 | 29.19156 | -97.61865 | 34859 ft | 522 kts | 40° |
| 2026-04-27 20:12 | 29.24113 | -97.55857 | 34862 ft | 522 kts | 40° |
| 2026-04-27 20:12 | 29.29088 | -97.49795 | 34865 ft | 522 kts | 40° |
| 2026-04-27 20:13 | 29.34071 | -97.43726 | 34869 ft | 522 kts | 40° |
| 2026-04-27 20:13 | 29.39048 | -97.37668 | 34875 ft | 522 kts | 40° |
| 2026-04-27 20:14 | 29.44024 | -97.31606 | 34879 ft | 521 kts | 40° |
| 2026-04-27 20:14 | 29.48961 | -97.25581 | 34876 ft | 521 kts | 40° |
| 2026-04-27 20:15 | 29.53935 | -97.19501 | 34872 ft | 521 kts | 40° |
| 2026-04-27 20:15 | 29.58901 | -97.13422 | 34862 ft | 521 kts | 40° |
| 2026-04-27 20:16 | 29.63869 | -97.07331 | 34853 ft | 522 kts | 40° |
| 2026-04-27 20:16 | 29.68825 | -97.01244 | 34841 ft | 522 kts | 40° |
| 2026-04-27 20:17 | 29.73761 | -96.95173 | 34830 ft | 522 kts | 40° |
| 2026-04-27 20:17 | 29.78721 | -96.89062 | 34820 ft | 522 kts | 40° |
| 2026-04-27 20:18 | 29.83675 | -96.82931 | 34809 ft | 522 kts | 40° |
| 2026-04-27 20:18 | 29.88616 | -96.76801 | 34802 ft | 522 kts | 40° |
| 2026-04-27 20:19 | 29.93561 | -96.70674 | 34808 ft | 522 kts | 40° |
| 2026-04-27 20:19 | 29.98510 | -96.64539 | 34774 ft | 522 kts | 40° |
| 2026-04-27 20:20 | 30.03420 | -96.58445 | 34762 ft | 522 kts | 40° |
| 2026-04-27 20:20 | 30.08362 | -96.52300 | 34745 ft | 522 kts | 40° |
| 2026-04-27 20:21 | 30.13296 | -96.46155 | 34740 ft | 522 kts | 40° |
| 2026-04-27 20:21 | 30.18240 | -96.39986 | 34719 ft | 522 kts | 40° |
| 2026-04-27 20:22 | 30.23137 | -96.33868 | 34717 ft | 522 kts | 40° |
| 2026-04-27 20:22 | 30.28074 | -96.27690 | 34735 ft | 522 kts | 40° |
| 2026-04-27 20:23 | 30.32997 | -96.21519 | 34750 ft | 522 kts | 40° |
| 2026-04-27 20:23 | 30.37917 | -96.15338 | 34767 ft | 522 kts | 40° |
| 2026-04-27 20:24 | 30.42823 | -96.09139 | 34763 ft | 521 kts | 40° |
| 2026-04-27 20:24 | 30.47704 | -96.02975 | 34755 ft | 521 kts | 40° |
| 2026-04-27 20:25 | 30.52713 | -95.96921 | 34737 ft | 518 kts | 38° |
| 2026-04-27 20:25 | 30.57884 | -95.91075 | 34770 ft | 517 kts | 37° |
| 2026-04-27 20:26 | 30.63059 | -95.85271 | 34832 ft | 518 kts | 37° |
| 2026-04-27 20:26 | 30.68224 | -95.79432 | 34874 ft | 518 kts | 37° |
| 2026-04-27 20:27 | 30.73353 | -95.73603 | 34915 ft | 518 kts | 37° |
| 2026-04-27 20:27 | 30.78504 | -95.67737 | 34940 ft | 518 kts | 37° |
| 2026-04-27 20:28 | 30.83654 | -95.61864 | 34934 ft | 518 kts | 37° |
| 2026-04-27 20:28 | 30.87935 | -95.56976 | 34920 ft | 518 kts | 37° |
| 2026-04-27 20:29 | 30.93914 | -95.50139 | 34899 ft | 518 kts | 37° |
| 2026-04-27 20:29 | 30.99050 | -95.44253 | 34879 ft | 518 kts | 38° |
| 2026-04-27 20:30 | 31.04125 | -95.38266 | 34877 ft | 519 kts | 38° |
| 2026-04-27 20:30 | 31.09201 | -95.32283 | 34888 ft | 518 kts | 38° |
| 2026-04-27 20:31 | 31.14299 | -95.26330 | 34896 ft | 518 kts | 38° |
| 2026-04-27 20:31 | 31.19379 | -95.20434 | 34900 ft | 517 kts | 38° |
| 2026-04-27 20:32 | 31.24494 | -95.14503 | 34897 ft | 518 kts | 38° |
| 2026-04-27 20:32 | 31.29609 | -95.08560 | 34895 ft | 517 kts | 38° |
| 2026-04-27 20:33 | 31.34713 | -95.02619 | 34909 ft | 518 kts | 38° |
| 2026-04-27 20:33 | 31.39818 | -94.96666 | 34914 ft | 518 kts | 38° |
| 2026-04-27 20:34 | 31.44893 | -94.90739 | 34922 ft | 518 kts | 38° |
| 2026-04-27 20:34 | 31.50005 | -94.84758 | 34929 ft | 518 kts | 38° |
| 2026-04-27 20:35 | 31.55108 | -94.78779 | 34937 ft | 519 kts | 38° |
| 2026-04-27 20:35 | 31.60219 | -94.72780 | 34937 ft | 519 kts | 38° |
| 2026-04-27 20:36 | 31.65294 | -94.66814 | 34936 ft | 519 kts | 38° |
| 2026-04-27 20:36 | 31.70397 | -94.60790 | 34927 ft | 520 kts | 38° |
| 2026-04-27 20:37 | 31.75488 | -94.54757 | 34918 ft | 520 kts | 38° |
| 2026-04-27 20:37 | 31.80590 | -94.48719 | 34911 ft | 520 kts | 38° |